sensor_id;sensor_type;location;lat;lon;timestamp;temperature;humidity
37956;DHT22;23776;51.592;7.180;2023-04-06T00:01:38;4.30;99.90
37956;DHT22;23776;51.592;7.180;2023-04-06T00:06:30;4.30;99.90
37956;DHT22;23776;51.592;7.180;2023-04-06T00:08:56;4.20;99.90
37956;DHT22;23776;51.592;7.180;2023-04-06T00:11:22;4.20;99.90
37956;DHT22;23776;51.592;7.180;2023-04-06T00:16:14;4.20;99.90
37956;DHT22;23776;51.592;7.180;2023-04-06T00:18:40;4.10;1.00
37956;DHT22;23776;51.592;7.180;2023-04-06T00:30:54;4.00;99.90
37956;DHT22;23776;51.592;7.180;2023-04-06T00:33:21;4.00;35.10
37956;DHT22;23776;51.592;7.180;2023-04-06T00:35:47;4.00;99.90
37956;DHT22;23776;51.592;7.180;2023-04-06T00:43:06;3.90;1.00
37956;DHT22;23776;51.592;7.180;2023-04-06T00:45:32;3.80;1.00
37956;DHT22;23776;51.592;7.180;2023-04-06T00:52:50;3.80;99.90
37956;DHT22;23776;51.592;7.180;2023-04-06T00:55:16;3.80;99.90
37956;DHT22;23776;51.592;7.180;2023-04-06T00:57:42;3.80;1.00
37956;DHT22;23776;51.592;7.180;2023-04-06T01:05:00;3.60;1.00
37956;DHT22;23776;51.592;7.180;2023-04-06T01:07:25;3.60;99.90
37956;DHT22;23776;51.592;7.180;2023-04-06T01:09:53;3.60;99.90
37956;DHT22;23776;51.592;7.180;2023-04-06T01:12:19;3.50;1.00
37956;DHT22;23776;51.592;7.180;2023-04-06T01:26:54;3.30;99.90
37956;DHT22;23776;51.592;7.180;2023-04-06T01:29:22;3.30;1.00
37956;DHT22;23776;51.592;7.180;2023-04-06T01:46:25;3.10;1.00
37956;DHT22;23776;51.592;7.180;2023-04-06T01:48:51;3.20;1.00
37956;DHT22;23776;51.592;7.180;2023-04-06T01:58:35;3.10;99.90
37956;DHT22;23776;51.592;7.180;2023-04-06T02:05:52;3.00;99.90
37956;DHT22;23776;51.592;7.180;2023-04-06T02:25:20;2.80;99.90
37956;DHT22;23776;51.592;7.180;2023-04-06T02:27:45;2.80;99.90
37956;DHT22;23776;51.592;7.180;2023-04-06T02:37:29;2.70;1.00
37956;DHT22;23776;51.592;7.180;2023-04-06T02:42:20;2.70;1.00
37956;DHT22;23776;51.592;7.180;2023-04-06T03:23:42;2.50;99.90
37956;DHT22;23776;51.592;7.180;2023-04-06T03:33:26;2.40;1.00
37956;DHT22;23776;51.592;7.180;2023-04-06T03:35:53;3.40;99.90
37956;DHT22;23776;51.592;7.180;2023-04-06T03:38:18;2.50;46.20
37956;DHT22;23776;51.592;7.180;2023-04-06T03:40:44;2.40;1.00
37956;DHT22;23776;51.592;7.180;2023-04-06T03:45:36;2.50;99.90
37956;DHT22;23776;51.592;7.180;2023-04-06T03:48:01;2.50;1.00
37956;DHT22;23776;51.592;7.180;2023-04-06T03:57:45;2.50;99.90
37956;DHT22;23776;51.592;7.180;2023-04-06T04:00:11;2.50;99.90
37956;DHT22;23776;51.592;7.180;2023-04-06T04:02:37;2.40;1.00
37956;DHT22;23776;51.592;7.180;2023-04-06T04:05:03;2.30;99.90
37956;DHT22;23776;51.592;7.180;2023-04-06T04:09:54;2.40;99.90
37956;DHT22;23776;51.592;7.180;2023-04-06T04:19:38;2.40;47.90
37956;DHT22;23776;51.592;7.180;2023-04-06T04:22:03;2.30;1.00
37956;DHT22;23776;51.592;7.180;2023-04-06T04:24:30;2.30;1.00
37956;DHT22;23776;51.592;7.180;2023-04-06T04:29:22;2.30;99.90
37956;DHT22;23776;51.592;7.180;2023-04-06T04:31:48;2.30;14.50
37956;DHT22;23776;51.592;7.180;2023-04-06T04:34:15;2.30;99.90
37956;DHT22;23776;51.592;7.180;2023-04-06T04:39:07;2.30;99.90
37956;DHT22;23776;51.592;7.180;2023-04-06T04:53:43;2.20;1.00
37956;DHT22;23776;51.592;7.180;2023-04-06T05:15:37;2.30;99.90
37956;DHT22;23776;51.592;7.180;2023-04-06T05:18:07;2.30;99.90
37956;DHT22;23776;51.592;7.180;2023-04-06T05:20:34;2.30;99.90
37956;DHT22;23776;51.592;7.180;2023-04-06T05:27:52;2.40;99.90
37956;DHT22;23776;51.592;7.180;2023-04-06T05:35:10;2.40;1.00
37956;DHT22;23776;51.592;7.180;2023-04-06T05:40:02;2.40;1.00
37956;DHT22;23776;51.592;7.180;2023-04-06T05:44:55;2.60;99.90
37956;DHT22;23776;51.592;7.180;2023-04-06T05:47:21;2.60;99.90
37956;DHT22;23776;51.592;7.180;2023-04-06T05:49:46;2.70;99.90
37956;DHT22;23776;51.592;7.180;2023-04-06T05:59:32;2.90;22.80
37956;DHT22;23776;51.592;7.180;2023-04-06T06:16:36;3.40;1.00
37956;DHT22;23776;51.592;7.180;2023-04-06T06:19:01;3.50;1.00
37956;DHT22;23776;51.592;7.180;2023-04-06T06:23:53;3.70;1.00
37956;DHT22;23776;51.592;7.180;2023-04-06T06:26:19;3.70;1.00
37956;DHT22;23776;51.592;7.180;2023-04-06T06:28:45;3.80;1.00
37956;DHT22;23776;51.592;7.180;2023-04-06T06:33:37;4.00;1.00
37956;DHT22;23776;51.592;7.180;2023-04-06T06:36:03;4.20;1.00
37956;DHT22;23776;51.592;7.180;2023-04-06T06:48:12;4.70;95.20
37956;DHT22;23776;51.592;7.180;2023-04-06T06:57:57;5.20;99.90
37956;DHT22;23776;51.592;7.180;2023-04-06T07:02:48;5.40;99.90
37956;DHT22;23776;51.592;7.180;2023-04-06T07:05:15;5.60;1.00
37956;DHT22;23776;51.592;7.180;2023-04-06T07:07:40;5.70;1.00
37956;DHT22;23776;51.592;7.180;2023-04-06T07:10:07;5.80;99.90
37956;DHT22;23776;51.592;7.180;2023-04-06T07:12:33;6.00;1.00
37956;DHT22;23776;51.592;7.180;2023-04-06T07:14:58;6.10;1.00
37956;DHT22;23776;51.592;7.180;2023-04-06T07:19:50;6.30;1.00
37956;DHT22;23776;51.592;7.180;2023-04-06T07:22:15;6.50;1.00
37956;DHT22;23776;51.592;7.180;2023-04-06T07:24:41;6.60;99.90
37956;DHT22;23776;51.592;7.180;2023-04-06T07:27:06;6.70;99.90
37956;DHT22;23776;51.592;7.180;2023-04-06T07:29:32;6.80;99.90
37956;DHT22;23776;51.592;7.180;2023-04-06T07:31:58;7.00;99.90
37956;DHT22;23776;51.592;7.180;2023-04-06T07:34:23;7.10;99.90
37956;DHT22;23776;51.592;7.180;2023-04-06T07:36:49;7.20;77.60
37956;DHT22;23776;51.592;7.180;2023-04-06T07:39:15;7.30;17.40
37956;DHT22;23776;51.592;7.180;2023-04-06T07:41:40;7.40;1.00
37956;DHT22;23776;51.592;7.180;2023-04-06T07:44:06;7.60;1.00
37956;DHT22;23776;51.592;7.180;2023-04-06T07:46:32;7.70;1.00
37956;DHT22;23776;51.592;7.180;2023-04-06T07:48:59;7.80;1.00
37956;DHT22;23776;51.592;7.180;2023-04-06T07:51:26;7.80;1.00
37956;DHT22;23776;51.592;7.180;2023-04-06T07:53:52;8.00;1.00
37956;DHT22;23776;51.592;7.180;2023-04-06T07:56:17;8.10;99.90
37956;DHT22;23776;51.592;7.180;2023-04-06T07:58:43;8.10;99.90
37956;DHT22;23776;51.592;7.180;2023-04-06T08:03:35;8.40;99.90
37956;DHT22;23776;51.592;7.180;2023-04-06T08:06:01;8.50;99.90
37956;DHT22;23776;51.592;7.180;2023-04-06T08:08:27;8.60;99.90
37956;DHT22;23776;51.592;7.180;2023-04-06T08:10:53;8.70;99.90
37956;DHT22;23776;51.592;7.180;2023-04-06T08:13:18;8.90;99.90
37956;DHT22;23776;51.592;7.180;2023-04-06T08:18:10;9.10;99.90
37956;DHT22;23776;51.592;7.180;2023-04-06T08:25:29;9.40;99.90
37956;DHT22;23776;51.592;7.180;2023-04-06T08:27:54;9.60;99.90
37956;DHT22;23776;51.592;7.180;2023-04-06T08:30:20;9.80;99.90
37956;DHT22;23776;51.592;7.180;2023-04-06T08:32:46;10.00;99.90
37956;DHT22;23776;51.592;7.180;2023-04-06T08:35:11;10.00;99.90
37956;DHT22;23776;51.592;7.180;2023-04-06T08:37:37;10.40;99.90
37956;DHT22;23776;51.592;7.180;2023-04-06T08:40:04;10.60;99.90
37956;DHT22;23776;51.592;7.180;2023-04-06T08:42:32;10.80;99.90
37956;DHT22;23776;51.592;7.180;2023-04-06T08:44:59;11.10;99.90
37956;DHT22;23776;51.592;7.180;2023-04-06T08:47:25;11.30;99.90
37956;DHT22;23776;51.592;7.180;2023-04-06T08:49:51;11.30;99.90
37956;DHT22;23776;51.592;7.180;2023-04-06T08:52:18;11.50;99.90
37956;DHT22;23776;51.592;7.180;2023-04-06T08:54:45;11.70;99.90
37956;DHT22;23776;51.592;7.180;2023-04-06T08:57:11;11.90;99.90
37956;DHT22;23776;51.592;7.180;2023-04-06T08:59:38;11.90;99.90
37956;DHT22;23776;51.592;7.180;2023-04-06T09:02:04;11.90;99.90
37956;DHT22;23776;51.592;7.180;2023-04-06T09:04:34;12.10;99.90
37956;DHT22;23776;51.592;7.180;2023-04-06T09:07:01;12.30;99.90
37956;DHT22;23776;51.592;7.180;2023-04-06T09:11:52;12.60;99.90
37956;DHT22;23776;51.592;7.180;2023-04-06T09:14:34;12.50;99.90
37956;DHT22;23776;51.592;7.180;2023-04-06T09:17:00;12.50;99.90
37956;DHT22;23776;51.592;7.180;2023-04-06T09:19:26;12.50;99.90
37956;DHT22;23776;51.592;7.180;2023-04-06T09:22:04;12.40;99.90
37956;DHT22;23776;51.592;7.180;2023-04-06T09:24:43;12.40;99.90
37956;DHT22;23776;51.592;7.180;2023-04-06T09:27:09;12.60;99.90
37956;DHT22;23776;51.592;7.180;2023-04-06T09:29:35;12.70;99.90
37956;DHT22;23776;51.592;7.180;2023-04-06T09:32:11;12.80;99.90
37956;DHT22;23776;51.592;7.180;2023-04-06T09:34:40;13.00;99.90
37956;DHT22;23776;51.592;7.180;2023-04-06T09:37:18;12.90;99.90
37956;DHT22;23776;51.592;7.180;2023-04-06T09:39:45;12.90;99.90
37956;DHT22;23776;51.592;7.180;2023-04-06T09:42:24;12.80;99.90
37956;DHT22;23776;51.592;7.180;2023-04-06T09:44:50;12.90;99.90
37956;DHT22;23776;51.592;7.180;2023-04-06T09:47:17;12.80;99.90
37956;DHT22;23776;51.592;7.180;2023-04-06T09:49:43;12.80;99.90
37956;DHT22;23776;51.592;7.180;2023-04-06T09:52:11;12.90;98.90
37956;DHT22;23776;51.592;7.180;2023-04-06T09:54:38;12.80;97.40
37956;DHT22;23776;51.592;7.180;2023-04-06T09:57:26;12.80;97.80
37956;DHT22;23776;51.592;7.180;2023-04-06T10:07:43;12.80;94.80
37956;DHT22;23776;51.592;7.180;2023-04-06T10:10:12;12.90;95.30
37956;DHT22;23776;51.592;7.180;2023-04-06T10:12:39;13.10;96.80
37956;DHT22;23776;51.592;7.180;2023-04-06T10:15:06;13.20;96.00
37956;DHT22;23776;51.592;7.180;2023-04-06T10:17:32;13.80;98.20
37956;DHT22;23776;51.592;7.180;2023-04-06T10:19:59;14.00;96.40
37956;DHT22;23776;51.592;7.180;2023-04-06T10:22:35;14.00;99.90
37956;DHT22;23776;51.592;7.180;2023-04-06T10:25:02;14.30;95.60
37956;DHT22;23776;51.592;7.180;2023-04-06T10:27:29;14.30;98.40
37956;DHT22;23776;51.592;7.180;2023-04-06T10:30:01;14.30;96.50
37956;DHT22;23776;51.592;7.180;2023-04-06T10:32:37;14.20;96.40
37956;DHT22;23776;51.592;7.180;2023-04-06T10:37:46;14.10;95.70
37956;DHT22;23776;51.592;7.180;2023-04-06T10:40:24;14.10;95.10
37956;DHT22;23776;51.592;7.180;2023-04-06T10:42:54;14.10;95.60
37956;DHT22;23776;51.592;7.180;2023-04-06T10:45:24;14.20;91.40
37956;DHT22;23776;51.592;7.180;2023-04-06T10:47:54;14.40;95.90
37956;DHT22;23776;51.592;7.180;2023-04-06T10:50:21;14.60;86.10
37956;DHT22;23776;51.592;7.180;2023-04-06T10:52:47;14.50;92.50
37956;DHT22;23776;51.592;7.180;2023-04-06T10:55:23;14.50;84.50
37956;DHT22;23776;51.592;7.180;2023-04-06T10:57:51;14.50;91.10
37956;DHT22;23776;51.592;7.180;2023-04-06T11:00:17;14.60;90.70
37956;DHT22;23776;51.592;7.180;2023-04-06T11:02:43;14.70;85.80
37956;DHT22;23776;51.592;7.180;2023-04-06T11:05:11;14.90;74.60
37956;DHT22;23776;51.592;7.180;2023-04-06T11:07:37;14.80;73.10
37956;DHT22;23776;51.592;7.180;2023-04-06T11:10:04;14.80;82.20
37956;DHT22;23776;51.592;7.180;2023-04-06T11:12:30;14.80;81.50
37956;DHT22;23776;51.592;7.180;2023-04-06T11:15:00;14.80;71.60
37956;DHT22;23776;51.592;7.180;2023-04-06T11:17:36;14.90;82.40
37956;DHT22;23776;51.592;7.180;2023-04-06T11:20:03;14.90;83.90
37956;DHT22;23776;51.592;7.180;2023-04-06T11:22:30;15.20;83.10
37956;DHT22;23776;51.592;7.180;2023-04-06T11:25:06;15.40;75.40
37956;DHT22;23776;51.592;7.180;2023-04-06T11:27:33;15.50;72.30
37956;DHT22;23776;51.592;7.180;2023-04-06T11:30:00;15.50;81.30
37956;DHT22;23776;51.592;7.180;2023-04-06T11:32:25;15.50;80.20
37956;DHT22;23776;51.592;7.180;2023-04-06T11:34:51;15.80;79.10
37956;DHT22;23776;51.592;7.180;2023-04-06T11:37:17;16.00;84.90
37956;DHT22;23776;51.592;7.180;2023-04-06T11:39:51;16.00;80.80
37956;DHT22;23776;51.592;7.180;2023-04-06T11:42:29;15.70;80.80
37956;DHT22;23776;51.592;7.180;2023-04-06T11:47:35;15.70;81.60
37956;DHT22;23776;51.592;7.180;2023-04-06T11:50:09;15.70;81.80
37956;DHT22;23776;51.592;7.180;2023-04-06T11:52:35;15.60;79.80
37956;DHT22;23776;51.592;7.180;2023-04-06T11:55:18;15.50;70.50
37956;DHT22;23776;51.592;7.180;2023-04-06T11:57:44;15.50;79.30
37956;DHT22;23776;51.592;7.180;2023-04-06T12:00:11;15.60;80.40
37956;DHT22;23776;51.592;7.180;2023-04-06T12:02:38;15.90;81.60
37956;DHT22;23776;51.592;7.180;2023-04-06T12:05:04;17.00;70.30
37956;DHT22;23776;51.592;7.180;2023-04-06T12:07:32;15.80;80.70
37956;DHT22;23776;51.592;7.180;2023-04-06T12:09:59;15.70;79.30
37956;DHT22;23776;51.592;7.180;2023-04-06T12:12:24;15.90;82.40
37956;DHT22;23776;51.592;7.180;2023-04-06T12:14:50;16.40;70.30
37956;DHT22;23776;51.592;7.180;2023-04-06T12:17:16;16.70;79.60
37956;DHT22;23776;51.592;7.180;2023-04-06T12:19:42;19.00;83.50
37956;DHT22;23776;51.592;7.180;2023-04-06T12:22:07;17.10;78.80
37956;DHT22;23776;51.592;7.180;2023-04-06T12:24:33;17.00;68.80
37956;DHT22;23776;51.592;7.180;2023-04-06T12:26:59;16.90;79.60
37956;DHT22;23776;51.592;7.180;2023-04-06T12:29:24;17.00;78.50
37956;DHT22;23776;51.592;7.180;2023-04-06T12:31:50;16.80;78.20
37956;DHT22;23776;51.592;7.180;2023-04-06T12:34:16;16.80;69.40
37956;DHT22;23776;51.592;7.180;2023-04-06T12:36:41;16.80;77.80
37956;DHT22;23776;51.592;7.180;2023-04-06T12:39:07;16.60;77.30
37956;DHT22;23776;51.592;7.180;2023-04-06T12:41:33;14.50;76.70
37956;DHT22;23776;51.592;7.180;2023-04-06T12:43:58;16.30;67.40
37956;DHT22;23776;51.592;7.180;2023-04-06T12:46:27;16.50;68.30
37956;DHT22;23776;51.592;7.180;2023-04-06T12:48:55;16.50;77.40
37956;DHT22;23776;51.592;7.180;2023-04-06T12:51:21;16.70;75.30
37956;DHT22;23776;51.592;7.180;2023-04-06T12:53:47;16.80;64.80
37956;DHT22;23776;51.592;7.180;2023-04-06T12:56:16;16.80;73.70
37956;DHT22;23776;51.592;7.180;2023-04-06T12:58:46;16.80;73.70
37956;DHT22;23776;51.592;7.180;2023-04-06T13:01:11;16.70;73.00
37956;DHT22;23776;51.592;7.180;2023-04-06T13:03:38;16.00;64.20
37956;DHT22;23776;51.592;7.180;2023-04-06T13:06:04;16.00;73.70
37956;DHT22;23776;51.592;7.180;2023-04-06T13:08:30;15.70;73.50
37956;DHT22;23776;51.592;7.180;2023-04-06T13:10:56;15.50;73.40
37956;DHT22;23776;51.592;7.180;2023-04-06T13:13:27;15.10;63.70
37956;DHT22;23776;51.592;7.180;2023-04-06T13:15:54;15.00;73.00
37956;DHT22;23776;51.592;7.180;2023-04-06T13:18:20;14.80;74.10
37956;DHT22;23776;51.592;7.180;2023-04-06T13:20:47;14.80;76.90
37956;DHT22;23776;51.592;7.180;2023-04-06T13:23:13;14.60;70.80
37956;DHT22;23776;51.592;7.180;2023-04-06T13:25:38;14.70;79.30
37956;DHT22;23776;51.592;7.180;2023-04-06T13:28:04;14.40;78.80
37956;DHT22;23776;51.592;7.180;2023-04-06T13:30:30;14.50;80.30
37956;DHT22;23776;51.592;7.180;2023-04-06T13:32:56;14.40;80.20
37956;DHT22;23776;51.592;7.180;2023-04-06T13:35:21;14.20;70.00
37956;DHT22;23776;51.592;7.180;2023-04-06T13:37:47;14.20;73.40
37956;DHT22;23776;51.592;7.180;2023-04-06T13:40:13;14.20;91.50
37956;DHT22;23776;51.592;7.180;2023-04-06T13:42:39;14.10;81.30
37956;DHT22;23776;51.592;7.180;2023-04-06T13:45:06;14.10;73.40
37956;DHT22;23776;51.592;7.180;2023-04-06T13:47:32;14.00;84.70
37956;DHT22;23776;51.592;7.180;2023-04-06T13:49:57;14.00;82.30
37956;DHT22;23776;51.592;7.180;2023-04-06T13:52:23;13.80;80.50
37956;DHT22;23776;51.592;7.180;2023-04-06T13:54:49;13.80;73.20
37956;DHT22;23776;51.592;7.180;2023-04-06T13:57:15;13.80;82.70
37956;DHT22;23776;51.592;7.180;2023-04-06T13:59:41;13.80;83.40
37956;DHT22;23776;51.592;7.180;2023-04-06T14:02:08;13.90;84.60
37956;DHT22;23776;51.592;7.180;2023-04-06T14:04:34;13.90;80.60
37956;DHT22;23776;51.592;7.180;2023-04-06T14:07:01;13.90;92.40
37956;DHT22;23776;51.592;7.180;2023-04-06T14:09:27;14.00;93.40
37956;DHT22;23776;51.592;7.180;2023-04-06T14:11:53;13.90;92.40
37956;DHT22;23776;51.592;7.180;2023-04-06T14:14:19;13.80;90.60
37956;DHT22;23776;51.592;7.180;2023-04-06T14:16:46;13.70;94.80
37956;DHT22;23776;51.592;7.180;2023-04-06T14:19:12;13.60;95.10
37956;DHT22;23776;51.592;7.180;2023-04-06T14:21:38;13.50;95.60
37956;DHT22;23776;51.592;7.180;2023-04-06T14:24:06;13.30;96.20
37956;DHT22;23776;51.592;7.180;2023-04-06T14:26:32;14.90;99.90
37956;DHT22;23776;51.592;7.180;2023-04-06T14:29:01;13.30;99.90
37956;DHT22;23776;51.592;7.180;2023-04-06T14:31:27;13.30;99.90
37956;DHT22;23776;51.592;7.180;2023-04-06T14:33:53;13.20;99.90
37956;DHT22;23776;51.592;7.180;2023-04-06T14:36:19;13.20;99.90
37956;DHT22;23776;51.592;7.180;2023-04-06T14:38:44;13.20;99.90
37956;DHT22;23776;51.592;7.180;2023-04-06T14:41:19;13.10;99.90
37956;DHT22;23776;51.592;7.180;2023-04-06T14:43:46;13.00;99.90
37956;DHT22;23776;51.592;7.180;2023-04-06T14:46:12;12.90;99.90
37956;DHT22;23776;51.592;7.180;2023-04-06T14:48:37;12.90;99.90
37956;DHT22;23776;51.592;7.180;2023-04-06T14:51:03;12.80;99.90
37956;DHT22;23776;51.592;7.180;2023-04-06T14:53:29;12.70;99.90
37956;DHT22;23776;51.592;7.180;2023-04-06T14:55:55;12.70;99.90
37956;DHT22;23776;51.592;7.180;2023-04-06T14:58:22;12.60;99.90
37956;DHT22;23776;51.592;7.180;2023-04-06T15:00:48;12.70;99.90
37956;DHT22;23776;51.592;7.180;2023-04-06T15:03:15;12.60;99.90
37956;DHT22;23776;51.592;7.180;2023-04-06T15:05:41;12.60;99.90
37956;DHT22;23776;51.592;7.180;2023-04-06T15:08:06;12.60;99.90
37956;DHT22;23776;51.592;7.180;2023-04-06T15:10:34;12.50;99.90
37956;DHT22;23776;51.592;7.180;2023-04-06T15:13:00;12.50;99.90
37956;DHT22;23776;51.592;7.180;2023-04-06T15:15:26;12.50;99.90
37956;DHT22;23776;51.592;7.180;2023-04-06T15:17:51;12.50;99.90
37956;DHT22;23776;51.592;7.180;2023-04-06T15:20:17;12.40;99.90
37956;DHT22;23776;51.592;7.180;2023-04-06T15:22:44;12.40;99.90
37956;DHT22;23776;51.592;7.180;2023-04-06T15:25:10;12.30;99.90
37956;DHT22;23776;51.592;7.180;2023-04-06T15:27:35;12.30;99.90
37956;DHT22;23776;51.592;7.180;2023-04-06T15:30:01;12.20;99.90
37956;DHT22;23776;51.592;7.180;2023-04-06T15:32:26;12.00;99.90
37956;DHT22;23776;51.592;7.180;2023-04-06T15:34:53;11.90;99.90
37956;DHT22;23776;51.592;7.180;2023-04-06T15:37:21;11.80;99.90
37956;DHT22;23776;51.592;7.180;2023-04-06T15:39:46;11.90;99.90
37956;DHT22;23776;51.592;7.180;2023-04-06T15:42:12;11.90;99.90
37956;DHT22;23776;51.592;7.180;2023-04-06T15:44:37;11.90;99.90
37956;DHT22;23776;51.592;7.180;2023-04-06T15:47:03;11.90;1.00
37956;DHT22;23776;51.592;7.180;2023-04-06T15:49:29;11.90;1.00
37956;DHT22;23776;51.592;7.180;2023-04-06T15:51:55;12.10;1.00
37956;DHT22;23776;51.592;7.180;2023-04-06T15:54:21;11.80;1.00
37956;DHT22;23776;51.592;7.180;2023-04-06T15:56:47;11.70;1.00
37956;DHT22;23776;51.592;7.180;2023-04-06T15:59:13;11.70;1.00
37956;DHT22;23776;51.592;7.180;2023-04-06T16:01:39;11.70;1.00
37956;DHT22;23776;51.592;7.180;2023-04-06T16:04:07;11.60;1.00
37956;DHT22;23776;51.592;7.180;2023-04-06T16:06:33;11.50;1.00
37956;DHT22;23776;51.592;7.180;2023-04-06T16:08:59;11.50;1.00
37956;DHT22;23776;51.592;7.180;2023-04-06T16:11:26;11.50;1.00
37956;DHT22;23776;51.592;7.180;2023-04-06T16:13:52;11.50;1.00
37956;DHT22;23776;51.592;7.180;2023-04-06T16:16:17;11.50;1.00
37956;DHT22;23776;51.592;7.180;2023-04-06T16:21:17;11.40;19.20
37956;DHT22;23776;51.592;7.180;2023-04-06T16:23:42;11.30;99.40
37956;DHT22;23776;51.592;7.180;2023-04-06T16:26:14;11.20;99.90
37956;DHT22;23776;51.592;7.180;2023-04-06T16:28:40;11.00;99.90
37956;DHT22;23776;51.592;7.180;2023-04-06T16:31:05;11.00;8.80
37956;DHT22;23776;51.592;7.180;2023-04-06T16:33:31;10.80;99.90
37956;DHT22;23776;51.592;7.180;2023-04-06T16:35:57;10.60;99.90
37956;DHT22;23776;51.592;7.180;2023-04-06T16:40:59;10.30;1.00
37956;DHT22;23776;51.592;7.180;2023-04-06T16:43:25;10.20;99.90
37956;DHT22;23776;51.592;7.180;2023-04-06T16:45:51;10.10;99.90
37956;DHT22;23776;51.592;7.180;2023-04-06T16:48:17;10.00;99.90
37956;DHT22;23776;51.592;7.180;2023-04-06T16:53:09;9.80;99.90
37956;DHT22;23776;51.592;7.180;2023-04-06T16:55:38;9.70;1.00
37956;DHT22;23776;51.592;7.180;2023-04-06T17:02:56;9.30;99.90
37956;DHT22;23776;51.592;7.180;2023-04-06T17:05:22;9.30;99.90
37956;DHT22;23776;51.592;7.180;2023-04-06T17:07:51;9.20;99.90
37956;DHT22;23776;51.592;7.180;2023-04-06T17:12:44;9.00;99.90
37956;DHT22;23776;51.592;7.180;2023-04-06T17:15:13;9.00;1.00
37956;DHT22;23776;51.592;7.180;2023-04-06T17:17:39;8.90;1.00
37956;DHT22;23776;51.592;7.180;2023-04-06T17:20:06;8.80;1.00
37956;DHT22;23776;51.592;7.180;2023-04-06T17:22:32;8.80;1.00
37956;DHT22;23776;51.592;7.180;2023-04-06T17:24:58;8.80;1.00
37956;DHT22;23776;51.592;7.180;2023-04-06T17:27:27;8.70;1.00
37956;DHT22;23776;51.592;7.180;2023-04-06T17:29:53;8.70;1.00
37956;DHT22;23776;51.592;7.180;2023-04-06T17:32:19;8.60;1.00
37956;DHT22;23776;51.592;7.180;2023-04-06T17:34:46;8.60;1.00
37956;DHT22;23776;51.592;7.180;2023-04-06T17:42:04;8.50;1.00
37956;DHT22;23776;51.592;7.180;2023-04-06T17:44:30;8.50;1.00
37956;DHT22;23776;51.592;7.180;2023-04-06T17:46:56;8.30;5.20
37956;DHT22;23776;51.592;7.180;2023-04-06T17:49:21;8.30;15.00
37956;DHT22;23776;51.592;7.180;2023-04-06T17:51:47;8.30;23.40
37956;DHT22;23776;51.592;7.180;2023-04-06T17:54:13;8.20;25.00
37956;DHT22;23776;51.592;7.180;2023-04-06T17:56:39;8.20;27.90
37956;DHT22;23776;51.592;7.180;2023-04-06T17:59:04;8.20;28.60
37956;DHT22;23776;51.592;7.180;2023-04-06T18:01:33;8.20;34.20
37956;DHT22;23776;51.592;7.180;2023-04-06T18:03:58;8.30;47.60
37956;DHT22;23776;51.592;7.180;2023-04-06T18:06:24;8.30;56.80
37956;DHT22;23776;51.592;7.180;2023-04-06T18:08:50;8.40;54.90
37956;DHT22;23776;51.592;7.180;2023-04-06T18:11:17;8.40;54.90
37956;DHT22;23776;51.592;7.180;2023-04-06T18:21:04;8.30;53.90
37956;DHT22;23776;51.592;7.180;2023-04-06T18:40:34;8.20;56.50
37956;DHT22;23776;51.592;7.180;2023-04-06T18:43:01;8.20;55.90
37956;DHT22;23776;51.592;7.180;2023-04-06T18:45:27;8.20;60.20
37956;DHT22;23776;51.592;7.180;2023-04-06T18:47:54;8.10;63.70
37956;DHT22;23776;51.592;7.180;2023-04-06T18:50:20;8.20;61.10
37956;DHT22;23776;51.592;7.180;2023-04-06T18:52:46;8.10;61.00
37956;DHT22;23776;51.592;7.180;2023-04-06T19:07:21;8.20;64.40
37956;DHT22;23776;51.592;7.180;2023-04-06T19:17:05;8.10;67.60
37956;DHT22;23776;51.592;7.180;2023-04-06T19:19:30;8.10;64.70
37956;DHT22;23776;51.592;7.180;2023-04-06T19:21:56;8.10;69.10
37956;DHT22;23776;51.592;7.180;2023-04-06T19:24:23;8.10;68.30
37956;DHT22;23776;51.592;7.180;2023-04-06T19:29:15;8.20;65.00
37956;DHT22;23776;51.592;7.180;2023-04-06T19:31:41;8.20;67.00
37956;DHT22;23776;51.592;7.180;2023-04-06T19:34:06;8.20;65.00
37956;DHT22;23776;51.592;7.180;2023-04-06T19:36:32;8.20;67.00
37956;DHT22;23776;51.592;7.180;2023-04-06T19:38:58;8.20;64.60
37956;DHT22;23776;51.592;7.180;2023-04-06T19:46:16;8.20;70.10
37956;DHT22;23776;51.592;7.180;2023-04-06T20:00:52;7.90;71.90
37956;DHT22;23776;51.592;7.180;2023-04-06T20:08:11;8.00;80.40
37956;DHT22;23776;51.592;7.180;2023-04-06T20:15:28;8.00;78.60
37956;DHT22;23776;51.592;7.180;2023-04-06T20:17:55;8.00;76.50
37956;DHT22;23776;51.592;7.180;2023-04-06T20:25:14;8.00;79.70
37956;DHT22;23776;51.592;7.180;2023-04-06T20:30:07;8.00;79.60
37956;DHT22;23776;51.592;7.180;2023-04-06T20:37:24;8.00;79.20
37956;DHT22;23776;51.592;7.180;2023-04-06T20:42:16;8.00;83.10
37956;DHT22;23776;51.592;7.180;2023-04-06T20:44:43;8.00;81.20
37956;DHT22;23776;51.592;7.180;2023-04-06T20:54:27;8.00;85.00
37956;DHT22;23776;51.592;7.180;2023-04-06T20:56:54;8.00;85.10
37956;DHT22;23776;51.592;7.180;2023-04-06T20:59:24;8.00;85.40
37956;DHT22;23776;51.592;7.180;2023-04-06T21:01:50;8.00;86.30
37956;DHT22;23776;51.592;7.180;2023-04-06T21:04:15;8.00;85.00
37956;DHT22;23776;51.592;7.180;2023-04-06T21:06:42;8.00;86.20
37956;DHT22;23776;51.592;7.180;2023-04-06T21:09:07;8.00;87.30
37956;DHT22;23776;51.592;7.180;2023-04-06T21:11:34;8.00;86.60
37956;DHT22;23776;51.592;7.180;2023-04-06T21:14:00;8.00;84.80
37956;DHT22;23776;51.592;7.180;2023-04-06T21:16:25;8.00;86.10
37956;DHT22;23776;51.592;7.180;2023-04-06T21:18:52;8.00;89.10
37956;DHT22;23776;51.592;7.180;2023-04-06T21:23:43;8.00;87.70
37956;DHT22;23776;51.592;7.180;2023-04-06T21:26:12;8.00;88.40
37956;DHT22;23776;51.592;7.180;2023-04-06T21:28:38;8.00;87.10
37956;DHT22;23776;51.592;7.180;2023-04-06T21:31:06;8.00;86.70
37956;DHT22;23776;51.592;7.180;2023-04-06T21:36:04;8.00;90.00
37956;DHT22;23776;51.592;7.180;2023-04-06T21:45:49;8.00;91.50
37956;DHT22;23776;51.592;7.180;2023-04-06T21:48:15;8.00;91.50
37956;DHT22;23776;51.592;7.180;2023-04-06T21:50:41;8.10;91.50
37956;DHT22;23776;51.592;7.180;2023-04-06T21:53:07;8.10;91.30
37956;DHT22;23776;51.592;7.180;2023-04-06T22:00:25;8.10;91.20
37956;DHT22;23776;51.592;7.180;2023-04-06T22:02:50;8.10;91.50
37956;DHT22;23776;51.592;7.180;2023-04-06T22:05:16;8.10;91.70
37956;DHT22;23776;51.592;7.180;2023-04-06T22:07:44;8.10;91.50
37956;DHT22;23776;51.592;7.180;2023-04-06T22:17:29;8.10;92.40
37956;DHT22;23776;51.592;7.180;2023-04-06T22:19:55;8.20;92.70
37956;DHT22;23776;51.592;7.180;2023-04-06T22:22:21;8.30;92.30
37956;DHT22;23776;51.592;7.180;2023-04-06T22:24:46;8.30;92.10
37956;DHT22;23776;51.592;7.180;2023-04-06T22:39:22;8.30;92.60
37956;DHT22;23776;51.592;7.180;2023-04-06T22:49:05;8.20;92.90
37956;DHT22;23776;51.592;7.180;2023-04-06T23:01:15;8.30;92.80
37956;DHT22;23776;51.592;7.180;2023-04-06T23:06:07;8.30;93.80
37956;DHT22;23776;51.592;7.180;2023-04-06T23:10:58;8.30;93.30
37956;DHT22;23776;51.592;7.180;2023-04-06T23:20:42;8.30;93.30
37956;DHT22;23776;51.592;7.180;2023-04-06T23:23:08;8.20;93.40